Time;durP1;ratioP1;P1;durP2;ratioP2;P2;SDS_P1;SDS_P2;PMS_P1;PMS_P2;Temp;Humidity;BMP_temperature;BMP_pressure;BME280_temperature;BME280_humidity;BME280_pressure;Samples;Min_cycle;Max_cycle;Signal;HPM_P1;HPM_P2
2021/06/20 00:04:46;;;;;;;54.83;36.30;;;;;17.20;100217.00;;;;10523995;28;20196;-77
2021/06/20 00:09:50;;;;;;;51.40;31.87;;;;;17.20;100212.00;;;;10542059;28;20258;-77
2021/06/20 00:14:52;;;;;;;43.03;30.43;;;;;17.10;100178.00;;;;10523845;28;20536;-76
2021/06/20 00:19:54;;;;;;;44.17;30.03;;;;;17.10;100158.00;;;;10507517;28;20192;-76
2021/06/20 00:24:57;;;;;;;48.43;31.67;;;;;17.10;100150.00;;;;10523529;28;20181;-76
2021/06/20 00:29:59;;;;;;;44.90;30.67;;;;;17.00;100146.00;;;;10506617;28;20668;-76
2021/06/20 00:35:03;;;;;;;52.27;33.60;;;;;17.00;100168.00;;;;10541462;28;20220;-75
2021/06/20 00:40:08;;;;;;;50.27;32.40;;;;;17.10;100146.00;;;;10522735;28;20560;-75
2021/06/20 00:45:13;;;;;;;55.20;34.20;;;;;17.10;100147.00;;;;10509248;28;20236;-75
2021/06/20 00:50:16;;;;;;;60.17;38.83;;;;;17.10;100163.00;;;;10480026;28;20213;-76
2021/06/20 00:55:18;;;;;;;65.10;38.43;;;;;17.10;100201.00;;;;10464154;28;20201;-75
2021/06/20 01:00:21;;;;;;;70.13;40.00;;;;;17.20;100178.00;;;;10498348;28;20278;-75
2021/06/20 01:05:23;;;;;;;70.65;41.28;;;;;17.20;100181.00;;;;10480267;28;20200;-75
2021/06/20 01:10:29;;;;;;;78.50;44.58;;;;;17.20;100209.00;;;;10462791;28;20301;-75
2021/06/20 01:15:31;;;;;;;84.73;46.80;;;;;17.20;100185.00;;;;10462831;28;20197;-75
2021/06/20 01:20:33;;;;;;;88.27;47.00;;;;;17.30;100202.00;;;;10463266;28;20189;-75
2021/06/20 01:25:39;;;;;;;87.20;47.42;;;;;17.30;100209.00;;;;10479857;28;20512;-75
2021/06/20 01:30:44;;;;;;;87.80;49.05;;;;;17.20;100218.00;;;;10462483;28;20680;-75
2021/06/20 01:35:46;;;;;;;90.60;48.50;;;;;17.30;100231.00;;;;10429634;28;20217;-75
2021/06/20 01:40:48;;;;;;;95.87;50.10;;;;;17.40;100229.00;;;;10462350;28;20648;-75
2021/06/20 01:45:50;;;;;;;105.50;54.30;;;;;17.40;100237.00;;;;10469619;28;20193;-75
2021/06/20 01:50:52;;;;;;;100.57;55.22;;;;;17.40;100244.00;;;;10487403;28;20197;-75
2021/06/20 01:55:55;;;;;;;110.05;53.78;;;;;17.40;100234.00;;;;10488350;28;20201;-75
2021/06/20 02:00:57;;;;;;;120.70;56.97;;;;;17.50;100235.00;;;;10505854;28;20193;-75
2021/06/20 02:06:00;;;;;;;118.28;58.50;;;;;17.50;100234.00;;;;10472856;28;20247;-75
2021/06/20 02:11:03;;;;;;;122.53;61.92;;;;;17.50;100241.00;;;;10504938;28;20193;-75
2021/06/20 02:16:05;;;;;;;132.38;63.63;;;;;17.50;100255.00;;;;10453632;28;20193;-75
2021/06/20 02:21:07;;;;;;;129.57;61.55;;;;;17.50;100243.00;;;;10486434;28;20254;-75
2021/06/20 02:26:09;;;;;;;129.23;62.38;;;;;17.50;100246.00;;;;10469442;28;20197;-75
2021/06/20 02:31:11;;;;;;;122.03;61.42;;;;;17.50;100234.00;;;;10486527;28;20186;-75
2021/06/20 02:36:13;;;;;;;113.10;56.97;;;;;17.50;100236.00;;;;10453999;28;20225;-75
2021/06/20 02:41:15;;;;;;;103.35;53.90;;;;;17.50;100224.00;;;;10511275;28;20648;-75
2021/06/20 02:46:17;;;;;;;90.47;48.05;;;;;17.40;100228.00;;;;10527840;28;20197;-75
2021/06/20 02:51:19;;;;;;;87.25;47.85;;;;;17.40;100212.00;;;;10526824;28;20607;-75
2021/06/20 02:56:21;;;;;;;89.65;45.08;;;;;17.40;100215.00;;;;10545162;28;20239;-75
2021/06/20 03:01:23;;;;;;;82.53;44.15;;;;;17.40;100219.00;;;;10493572;28;20200;-75
2021/06/20 03:06:25;;;;;;;81.20;43.50;;;;;17.40;100220.00;;;;10508349;28;20205;-75
2021/06/20 03:11:26;;;;;;;76.07;39.42;;;;;17.50;100218.00;;;;10495302;28;20709;-75
2021/06/20 03:16:29;;;;;;;76.85;39.33;;;;;17.50;100215.00;;;;10451085;28;20192;-75
2021/06/20 03:21:31;;;;;;;68.85;38.20;;;;;17.50;100228.00;;;;10467235;28;20710;-75
2021/06/20 03:26:33;;;;;;;64.40;36.33;;;;;17.60;100242.00;;;;10527379;28;20555;-75
2021/06/20 03:31:35;;;;;;;63.20;37.30;;;;;17.70;100239.00;;;;10544130;28;20567;-75
2021/06/20 03:36:37;;;;;;;59.47;35.35;;;;;17.70;100234.00;;;;10501631;28;20202;-75
2021/06/20 03:41:39;;;;;;;58.47;34.25;;;;;17.70;100242.00;;;;10466459;28;20907;-75
2021/06/20 03:46:42;;;;;;;55.30;33.15;;;;;17.80;100244.00;;;;10450262;28;20205;-75
2021/06/20 03:51:44;;;;;;;60.67;34.45;;;;;17.80;100252.00;;;;10466330;28;20204;-75
2021/06/20 03:56:45;;;;;;;56.75;32.55;;;;;17.90;100268.00;;;;10568897;28;20214;-74
2021/06/20 04:01:47;;;;;;;52.45;32.03;;;;;17.90;100273.00;;;;10549417;28;20191;-75
2021/06/20 04:06:49;;;;;;;50.97;31.27;;;;;18.00;100286.00;;;;10515419;28;20679;-75
2021/06/20 04:11:51;;;;;;;40.45;27.70;;;;;18.00;100293.00;;;;10548786;28;20192;-75
2021/06/20 04:16:53;;;;;;;42.83;27.70;;;;;18.00;100293.00;;;;10548841;28;20184;-75
2021/06/20 04:21:55;;;;;;;43.10;28.17;;;;;18.10;100291.00;;;;10554572;28;20196;-75
2021/06/20 04:27:08;;;;;;;43.27;28.00;;;;;18.00;100297.00;;;;10509312;28;20201;-75
2021/06/20 04:32:10;;;;;;;41.47;26.83;;;;;18.10;100296.00;;;;10506093;28;20692;-75
2021/06/20 04:37:12;;;;;;;42.95;27.55;;;;;18.20;100286.00;;;;10492431;28;20289;-75
2021/06/20 04:42:16;;;;;;;40.70;27.98;;;;;18.30;100297.00;;;;10498194;28;20617;-75
2021/06/20 04:47:22;;;;;;;39.28;26.08;;;;;18.40;100312.00;;;;10463434;28;20212;-75
2021/06/20 04:52:24;;;;;;;38.08;25.35;;;;;18.40;100318.00;;;;10463685;28;20198;-75
2021/06/20 04:57:29;;;;;;;36.63;25.95;;;;;18.50;100323.00;;;;10480209;28;20186;-75
2021/06/20 05:02:31;;;;;;;40.08;25.88;;;;;18.60;100317.00;;;;10500548;28;20228;-75
2021/06/20 05:07:33;;;;;;;35.55;22.60;;;;;18.50;100315.00;;;;10488815;28;20202;-75
2021/06/20 05:12:39;;;;;;;33.30;23.48;;;;;18.80;100331.00;;;;10463291;28;20185;-75
2021/06/20 05:17:41;;;;;;;34.22;23.20;;;;;19.00;100353.00;;;;10463343;28;20186;-75
2021/06/20 05:22:43;;;;;;;32.45;22.63;;;;;19.20;100347.00;;;;10471168;28;20300;-76
2021/06/20 05:27:45;;;;;;;33.45;22.58;;;;;19.20;100346.00;;;;10504843;28;20605;-75
2021/06/20 05:32:49;;;;;;;32.83;22.17;;;;;19.30;100344.00;;;;10503719;28;20278;-75
2021/06/20 05:37:51;;;;;;;29.75;22.45;;;;;19.30;100350.00;;;;10479222;28;20259;-75
2021/06/20 05:42:54;;;;;;;31.88;23.30;;;;;19.60;100340.00;;;;10445953;28;20255;-75
2021/06/20 05:47:56;;;;;;;28.15;20.88;;;;;20.50;100359.00;;;;10446051;28;20552;-75
2021/06/20 05:52:57;;;;;;;30.77;21.08;;;;;21.00;100375.00;;;;10446029;28;20273;-75
2021/06/20 05:57:59;;;;;;;23.63;18.90;;;;;21.60;100372.00;;;;10478523;28;20649;-76
2021/06/20 06:03:01;;;;;;;21.73;17.92;;;;;22.00;100385.00;;;;10462998;28;20537;-75
2021/06/20 06:08:03;;;;;;;19.33;15.32;;;;;22.20;100381.00;;;;10461636;28;20228;-75
2021/06/20 06:13:05;;;;;;;17.13;15.02;;;;;22.20;100378.00;;;;10428922;28;20213;-75
2021/06/20 06:18:07;;;;;;;17.95;14.27;;;;;22.50;100384.00;;;;10478423;28;20194;-76
2021/06/20 06:23:13;;;;;;;15.85;13.35;;;;;23.00;100369.00;;;;10497073;28;20933;-75
2021/06/20 06:28:15;;;;;;;15.77;13.80;;;;;23.30;100356.00;;;;10475951;28;20205;-75
2021/06/20 06:33:17;;;;;;;11.30;10.15;;;;;24.30;100348.00;;;;10485813;28;20725;-75
2021/06/20 06:38:19;;;;;;;10.15;9.15;;;;;24.90;100346.00;;;;10506865;28;20201;-75
2021/06/20 06:43:23;;;;;;;10.02;7.85;;;;;24.80;100347.00;;;;10501338;28;20189;-75
2021/06/20 06:48:26;;;;;;;8.65;6.93;;;;;24.90;100351.00;;;;10509419;28;20287;-75
2021/06/20 06:53:28;;;;;;;9.90;8.90;;;;;23.90;100347.00;;;;10521459;28;20196;-74
2021/06/20 06:58:30;;;;;;;9.02;6.40;;;;;23.80;100369.00;;;;10522860;28;20635;-75
2021/06/20 07:03:32;;;;;;;7.25;6.57;;;;;24.20;100366.00;;;;10481259;28;20199;-75
2021/06/20 07:08:34;;;;;;;9.55;5.63;;;;;25.20;100353.00;;;;10484855;28;20232;-75
2021/06/20 07:13:36;;;;;;;7.30;4.25;;;;;26.20;100353.00;;;;10481659;28;20200;-74
2021/06/20 07:18:38;;;;;;;4.07;3.67;;;;;26.20;100350.00;;;;10496538;28;20185;-74
2021/06/20 07:23:40;;;;;;;4.32;2.90;;;;;27.00;100348.00;;;;10490573;28;20565;-74
2021/06/20 07:28:42;;;;;;;4.80;2.80;;;;;27.00;100335.00;;;;10499984;28;20205;-74
2021/06/20 07:33:43;;;;;;;2.58;2.00;;;;;26.20;100344.00;;;;10486449;28;20263;-73
2021/06/20 07:38:46;;;;;;;2.90;1.83;;;;;25.40;100343.00;;;;10529521;28;20201;-74
2021/06/20 07:43:47;;;;;;;2.65;1.80;;;;;24.80;100360.00;;;;10497889;28;20246;-74
2021/06/20 07:48:50;;;;;;;3.15;1.88;;;;;23.90;100370.00;;;;10488655;28;20213;-73
2021/06/20 07:53:51;;;;;;;4.18;1.80;;;;;24.10;100371.00;;;;10506614;28;20207;-76
2021/06/20 07:58:56;;;;;;;2.28;1.60;;;;;24.50;100369.00;;;;10525845;28;20193;-76
2021/06/20 08:03:58;;;;;;;3.35;1.50;;;;;25.20;100390.00;;;;10490192;28;20198;-76
2021/06/20 08:09:02;;;;;;;3.08;1.55;;;;;25.40;100396.00;;;;10466788;28;20218;-75
2021/06/20 08:14:05;;;;;;;2.92;1.52;;;;;26.90;100391.00;;;;10466261;28;20216;-75
2021/06/20 08:19:07;;;;;;;2.08;1.25;;;;;26.40;100388.00;;;;10481793;28;20656;-75
2021/06/20 08:24:10;;;;;;;1.30;1.25;;;;;25.70;100377.00;;;;10536812;28;20283;-76
2021/06/20 08:29:13;;;;;;;2.25;1.50;;;;;26.70;100375.00;;;;10518135;28;20217;-76
2021/06/20 08:34:15;;;;;;;1.55;1.35;;;;;25.80;100380.00;;;;10505075;28;20216;-75
2021/06/20 08:39:17;;;;;;;1.52;1.42;;;;;25.30;100390.00;;;;10505476;28;20249;-75
2021/06/20 08:44:24;;;;;;;2.00;1.30;;;;;26.20;100388.00;;;;10521647;28;20189;-75
2021/06/20 08:49:27;;;;;;;4.15;1.30;;;;;27.50;100374.00;;;;10502074;28;20231;-75
2021/06/20 08:54:30;;;;;;;2.45;1.30;;;;;28.80;100369.00;;;;10519747;28;20268;-75
2021/06/20 08:59:32;;;;;;;2.08;1.20;;;;;29.60;100369.00;;;;10502939;28;20202;-75
2021/06/20 09:04:34;;;;;;;3.00;1.10;;;;;29.80;100366.00;;;;10519598;28;20193;-75
2021/06/20 09:09:37;;;;;;;1.15;1.00;;;;;29.10;100374.00;;;;10507505;28;20288;-75
2021/06/20 09:14:50;;;;;;;1.33;1.23;;;;;28.90;100365.00;;;;10479335;28;20185;-76
2021/06/20 09:19:57;;;;;;;2.10;1.10;;;;;29.00;100362.00;;;;10466617;28;20186;-75
2021/06/20 09:25:01;;;;;;;4.22;1.10;;;;;28.20;100366.00;;;;10477682;28;20264;-76
2021/06/20 09:30:09;;;;;;;2.03;1.05;;;;;29.70;100369.00;;;;10481428;28;20209;-75
2021/06/20 09:35:11;;;;;;;2.40;0.93;;;;;30.50;100365.00;;;;10447221;28;20221;-76
2021/06/20 09:40:15;;;;;;;1.85;1.13;;;;;30.50;100373.00;;;;10479990;28;20204;-76
2021/06/20 09:45:32;;;;;;;1.60;1.10;;;;;31.40;100373.00;;;;10490309;28;20193;-76
2021/06/20 09:50:39;;;;;;;1.00;0.90;;;;;31.40;100367.00;;;;10470439;28;20317;-76
2021/06/20 09:55:41;;;;;;;0.90;0.90;;;;;31.80;100366.00;;;;10472831;28;20193;-76
2021/06/20 10:00:43;;;;;;;3.00;0.90;;;;;31.20;100364.00;;;;10484583;28;20913;-76
2021/06/20 10:05:45;;;;;;;2.30;0.98;;;;;29.80;100366.00;;;;10470242;28;20219;-76
2021/06/20 10:10:47;;;;;;;1.17;0.90;;;;;28.80;100358.00;;;;10508905;28;20210;-76
2021/06/20 10:15:49;;;;;;;2.28;0.98;;;;;28.90;100373.00;;;;10510581;28;20218;-75
2021/06/20 10:20:57;;;;;;;1.58;0.88;;;;;28.40;100369.00;;;;10500484;28;20197;-76
2021/06/20 10:26:07;;;;;;;1.75;0.95;;;;;28.10;100363.00;;;;10494383;28;20688;-75
2021/06/20 10:31:10;;;;;;;1.50;0.80;;;;;27.70;100360.00;;;;10486463;28;20591;-75
2021/06/20 10:36:13;;;;;;;1.08;0.90;;;;;27.60;100367.00;;;;10487033;28;20635;-76
2021/06/20 10:41:26;;;;;;;1.95;1.10;;;;;27.60;100358.00;;;;10480438;28;20193;-75
2021/06/20 10:46:29;;;;;;;4.35;1.10;;;;;30.50;100348.00;;;;10491578;28;20189;-76
2021/06/20 10:51:31;;;;;;;1.05;0.95;;;;;31.30;100345.00;;;;10516739;28;20208;-76
2021/06/20 10:56:34;;;;;;;2.67;1.08;;;;;31.50;100341.00;;;;10523908;28;20190;-75
2021/06/20 11:01:42;;;;;;;1.95;1.38;;;;;30.50;100343.00;;;;10464478;28;20396;-76
2021/06/20 11:06:57;;;;;;;1.10;0.80;;;;;30.80;100324.00;;;;10492022;28;20201;-75
2021/06/20 11:12:02;;;;;;;1.85;1.30;;;;;30.90;100320.00;;;;10493300;28;20220;-76
2021/06/20 11:17:07;;;;;;;1.85;1.20;;;;;30.80;100306.00;;;;10498290;28;20189;-75
2021/06/20 11:22:12;;;;;;;1.92;1.00;;;;;31.90;100296.00;;;;10527553;28;20555;-75
2021/06/20 11:27:19;;;;;;;1.52;1.10;;;;;33.20;100290.00;;;;10475624;28;20202;-75
2021/06/20 11:32:33;;;;;;;3.28;0.95;;;;;34.10;100290.00;;;;10509281;28;20216;-75
2021/06/20 11:37:49;;;;;;;1.48;1.05;;;;;33.30;100306.00;;;;10482933;28;20207;-75
2021/06/20 11:42:54;;;;;;;2.60;0.98;;;;;34.00;100291.00;;;;10489833;28;20201;-76
2021/06/20 11:47:58;;;;;;;1.15;0.93;;;;;33.10;100318.00;;;;10501787;28;20223;-75
2021/06/20 11:53:05;;;;;;;1.30;1.20;;;;;31.40;100319.00;;;;10497177;28;20569;-75
2021/06/20 11:58:10;;;;;;;4.25;1.10;;;;;30.40;100332.00;;;;10457708;28;20289;-76
2021/06/20 12:03:19;;;;;;;2.15;1.00;;;;;31.10;100302.00;;;;10476893;28;20181;-75
2021/06/20 12:08:22;;;;;;;0.93;0.90;;;;;32.40;100285.00;;;;10490342;28;20289;-76
2021/06/20 12:13:23;;;;;;;1.30;1.20;;;;;32.10;100271.00;;;;10480704;28;20615;-76
2021/06/20 12:18:27;;;;;;;1.15;0.90;;;;;32.30;100298.00;;;;10489859;28;20551;-75
2021/06/20 12:23:32;;;;;;;1.10;0.80;;;;;31.60;100306.00;;;;10489028;28;20193;-76
2021/06/20 12:28:34;;;;;;;1.40;0.80;;;;;31.60;100303.00;;;;10485358;28;20738;-75
2021/06/20 12:33:36;;;;;;;1.15;0.90;;;;;33.20;100300.00;;;;10474322;28;20583;-76
2021/06/20 12:38:38;;;;;;;3.50;1.00;;;;;32.40;100301.00;;;;10490364;28;20216;-75
2021/06/20 12:43:40;;;;;;;1.73;1.10;;;;;30.40;100292.00;;;;10487070;28;20188;-76
2021/06/20 12:48:42;;;;;;;1.40;1.10;;;;;30.00;100288.00;;;;10473840;28;20282;-75
2021/06/20 12:53:45;;;;;;;1.10;1.00;;;;;30.60;100301.00;;;;10475358;28;20285;-75
2021/06/20 12:59:05;;;;;;;2.15;1.00;;;;;30.70;100296.00;;;;10507116;28;20194;-75
2021/06/20 13:04:13;;;;;;;2.42;1.00;;;;;30.10;100305.00;;;;10496951;28;20196;-75
2021/06/20 13:09:15;;;;;;;1.70;1.00;;;;;30.60;100312.00;;;;10510987;28;20263;-75
2021/06/20 13:14:24;;;;;;;3.13;0.65;;;;;30.50;100293.00;;;;10483581;28;20193;-75
2021/06/20 13:19:28;;;;;;;1.25;0.90;;;;;30.40;100300.00;;;;10483514;28;20189;-76
2021/06/20 13:24:30;;;;;;;3.67;0.90;;;;;29.90;100288.00;;;;10475008;28;20197;-75
2021/06/20 13:29:32;;;;;;;1.63;1.00;;;;;30.30;100271.00;;;;10466904;28;20207;-76
2021/06/20 13:34:34;;;;;;;1.30;1.00;;;;;30.10;100267.00;;;;10457824;28;20222;-75
2021/06/20 13:39:38;;;;;;;1.73;0.80;;;;;30.20;100259.00;;;;10477946;28;20197;-75
2021/06/20 13:44:41;;;;;;;2.53;0.60;;;;;33.60;100262.00;;;;10482577;28;20202;-75
2021/06/20 13:49:42;;;;;;;3.65;1.00;;;;;34.90;100280.00;;;;10478139;28;20211;-76
2021/06/20 13:54:51;;;;;;;0.57;0.52;;;;;35.50;100284.00;;;;10492231;28;20656;-75
2021/06/20 13:59:55;;;;;;;1.58;0.80;;;;;35.00;100283.00;;;;10502334;28;20193;-76
2021/06/20 14:04:57;;;;;;;0.80;0.80;;;;;32.80;100266.00;;;;10524718;28;20205;-76
2021/06/20 14:09:59;;;;;;;0.68;0.68;;;;;30.50;100264.00;;;;10493378;28;20231;-76
2021/06/20 14:15:03;;;;;;;0.80;0.80;;;;;36.10;100255.00;;;;10543598;28;20189;-75
2021/06/20 14:20:06;;;;;;;0.82;0.77;;;;;37.80;100250.00;;;;10501935;28;20208;-75
2021/06/20 14:25:09;;;;;;;0.65;0.65;;;;;38.70;100227.00;;;;10517000;28;20206;-75
2021/06/20 14:30:13;;;;;;;1.60;0.93;;;;;38.30;100230.00;;;;10525217;28;20205;-76
2021/06/20 14:35:15;;;;;;;2.92;1.17;;;;;38.50;100211.00;;;;10517222;28;20266;-76
2021/06/20 14:40:17;;;;;;;3.38;1.10;;;;;37.80;100205.00;;;;10530344;28;20220;-76
2021/06/20 14:45:19;;;;;;;2.22;0.98;;;;;38.00;100191.00;;;;10507120;28;20196;-76
2021/06/20 14:50:23;;;;;;;0.85;0.63;;;;;39.30;100185.00;;;;10500701;28;20230;-76
2021/06/20 14:55:25;;;;;;;0.80;0.80;;;;;37.90;100185.00;;;;10506450;28;20193;-76
2021/06/20 15:00:27;;;;;;;0.70;0.70;;;;;38.80;100175.00;;;;10479225;28;20198;-76
2021/06/20 15:05:29;;;;;;;2.08;0.70;;;;;40.20;100185.00;;;;10504405;28;20251;-77
2021/06/20 15:10:31;;;;;;;0.90;0.90;;;;;39.40;100195.00;;;;10506232;28;20556;-76
2021/06/20 15:15:33;;;;;;;3.60;0.68;;;;;39.90;100186.00;;;;10495314;28;20674;-76
2021/06/20 15:20:35;;;;;;;1.77;0.60;;;;;37.50;100197.00;;;;10493682;28;20186;-76
2021/06/20 15:25:37;;;;;;;0.88;0.68;;;;;34.80;100186.00;;;;10500913;28;20198;-76
2021/06/20 15:30:41;;;;;;;1.70;0.55;;;;;33.70;100189.00;;;;10509839;28;20219;-77
2021/06/20 15:35:44;;;;;;;0.82;0.82;;;;;32.90;100193.00;;;;10499634;28;20207;-76
2021/06/20 15:40:47;;;;;;;3.30;0.77;;;;;33.40;100213.00;;;;10494271;28;20227;-76
2021/06/20 15:45:49;;;;;;;0.98;0.77;;;;;31.40;100215.00;;;;10514261;28;20205;-76
2021/06/20 15:50:51;;;;;;;1.95;0.70;;;;;30.40;100230.00;;;;10453180;28;20209;-77
2021/06/20 15:55:53;;;;;;;0.55;0.55;;;;;30.00;100234.00;;;;10538499;28;20208;-76
2021/06/20 16:00:55;;;;;;;1.10;0.68;;;;;29.90;100220.00;;;;10521848;28;20196;-76
2021/06/20 16:05:58;;;;;;;1.38;0.73;;;;;28.90;100228.00;;;;10500100;28;20194;-76
2021/06/20 16:10:59;;;;;;;19.23;12.82;;;;;29.00;100219.00;;;;10507533;28;20558;-76
2021/06/20 16:16:01;;;;;;;1.75;0.80;;;;;28.70;100218.00;;;;10473417;28;20236;-76
2021/06/20 16:21:04;;;;;;;0.80;0.80;;;;;28.50;100220.00;;;;10496876;28;20193;-75
2021/06/20 16:26:06;;;;;;;0.93;0.70;;;;;28.20;100241.00;;;;10490224;28;20272;-76
2021/06/20 16:31:08;;;;;;;1.33;0.90;;;;;28.20;100237.00;;;;10515305;28;20200;-75
2021/06/20 16:36:11;;;;;;;0.70;0.70;;;;;28.20;100230.00;;;;10450335;28;20312;-75
2021/06/20 16:41:12;;;;;;;4.25;3.13;;;;;28.60;100217.00;;;;10485577;28;20197;-76
2021/06/20 16:46:14;;;;;;;1.02;0.82;;;;;29.00;100215.00;;;;10508098;28;20194;-75
2021/06/20 16:51:17;;;;;;;8.15;6.30;;;;;28.80;100207.00;;;;10511118;28;20211;-75
2021/06/20 16:56:22;;;;;;;2.53;0.85;;;;;28.70;100192.00;;;;10489422;28;20204;-75
2021/06/20 17:01:25;;;;;;;0.70;0.70;;;;;28.30;100192.00;;;;10503391;28;20564;-76
2021/06/20 17:06:27;;;;;;;1.70;0.80;;;;;28.00;100198.00;;;;10494493;28;20204;-75
2021/06/20 17:11:29;;;;;;;0.90;0.90;;;;;28.20;100183.00;;;;10469782;28;20243;-75
2021/06/20 17:16:31;;;;;;;1.25;1.15;;;;;28.20;100183.00;;;;10475813;28;20711;-75
2021/06/20 17:21:36;;;;;;;1.98;1.00;;;;;28.10;100178.00;;;;10506445;28;20809;-75
2021/06/20 17:26:39;;;;;;;1.92;1.23;;;;;27.60;100164.00;;;;10501701;28;20196;-75
2021/06/20 17:31:41;;;;;;;2.47;1.27;;;;;27.40;100164.00;;;;10488814;28;20760;-76
2021/06/20 17:36:44;;;;;;;2.25;0.80;;;;;27.30;100169.00;;;;10492213;28;20234;-75
2021/06/20 17:41:46;;;;;;;3.90;1.00;;;;;27.30;100158.00;;;;10482535;28;20185;-75
2021/06/20 17:46:48;;;;;;;3.08;0.88;;;;;27.20;100161.00;;;;10480212;28;20212;-75
2021/06/20 17:51:55;;;;;;;1.95;1.00;;;;;26.70;100147.00;;;;10484321;28;20199;-74
2021/06/20 17:56:57;;;;;;;0.90;0.82;;;;;26.40;100156.00;;;;10471317;28;20305;-75
2021/06/20 18:01:59;;;;;;;2.35;1.27;;;;;26.20;100147.00;;;;10510443;28;20189;-75
2021/06/20 18:07:03;;;;;;;2.25;1.00;;;;;26.10;100146.00;;;;10477692;28;20200;-77
2021/06/20 18:12:06;;;;;;;1.50;1.38;;;;;25.70;100150.00;;;;10497678;28;20217;-77
2021/06/20 18:17:08;;;;;;;1.95;1.50;;;;;25.30;100145.00;;;;10466611;28;20691;-76
2021/06/20 18:22:10;;;;;;;3.28;2.20;;;;;25.00;100132.00;;;;10496859;28;20207;-76
2021/06/20 18:27:12;;;;;;;3.22;2.05;;;;;24.50;100126.00;;;;10480010;28;20197;-78
2021/06/20 18:32:13;;;;;;;2.97;2.78;;;;;24.40;100129.00;;;;10499102;28;20221;-76
2021/06/20 18:37:19;;;;;;;4.07;3.08;;;;;24.30;100127.00;;;;10486985;28;20207;-77
2021/06/20 18:42:25;;;;;;;4.53;3.30;;;;;24.40;100119.00;;;;10502220;28;20185;-76
2021/06/20 18:47:27;;;;;;;4.25;3.88;;;;;24.50;100109.00;;;;10489179;28;20288;-77
2021/06/20 18:52:29;;;;;;;4.88;4.47;;;;;24.30;100110.00;;;;10512988;28;20220;-76
2021/06/20 18:57:33;;;;;;;6.32;5.47;;;;;23.90;100106.00;;;;10502396;28;20193;-77
2021/06/20 19:02:35;;;;;;;7.10;5.85;;;;;23.40;100127.00;;;;10487343;28;20194;-77
2021/06/20 19:07:38;;;;;;;7.20;6.50;;;;;23.10;100128.00;;;;10468822;28;20224;-77
2021/06/20 19:12:42;;;;;;;8.45;7.63;;;;;22.90;100142.00;;;;10521818;28;20667;-76
2021/06/20 19:17:44;;;;;;;9.07;8.18;;;;;22.70;100143.00;;;;10492866;28;20197;-76
2021/06/20 19:22:47;;;;;;;8.75;7.95;;;;;22.40;100147.00;;;;10497239;28;20657;-77
2021/06/20 19:27:51;;;;;;;10.77;8.52;;;;;22.30;100152.00;;;;10473867;28;20216;-76
2021/06/20 19:32:55;;;;;;;9.20;8.25;;;;;22.20;100169.00;;;;10506044;28;20224;-77
2021/06/20 19:38:01;;;;;;;8.43;7.63;;;;;22.10;100184.00;;;;10540849;28;20223;-77
2021/06/20 19:43:03;;;;;;;8.98;8.07;;;;;21.90;100194.00;;;;10473359;28;20196;-74
2021/06/20 19:48:06;;;;;;;8.63;7.80;;;;;21.80;100196.00;;;;10492550;28;20200;-75
2021/06/20 19:53:09;;;;;;;9.98;8.88;;;;;21.80;100212.00;;;;10505547;28;20213;-75
2021/06/20 19:58:12;;;;;;;9.73;8.70;;;;;21.60;100202.00;;;;10519515;28;20203;-77
2021/06/20 20:03:14;;;;;;;9.95;8.18;;;;;21.50;100206.00;;;;10522451;28;20797;-76
2021/06/20 20:08:16;;;;;;;9.52;8.55;;;;;21.40;100199.00;;;;10539914;28;20542;-76
2021/06/20 20:13:19;;;;;;;10.18;9.15;;;;;21.30;100181.00;;;;10521312;28;20201;-76
2021/06/20 20:18:23;;;;;;;9.98;8.50;;;;;21.20;100198.00;;;;10495407;28;20251;-76
2021/06/20 20:23:25;;;;;;;11.88;8.57;;;;;21.10;100201.00;;;;10500685;28;20192;-76
2021/06/20 20:28:27;;;;;;;11.05;9.02;;;;;21.00;100198.00;;;;10521631;28;20531;-77
2021/06/20 20:33:40;;;;;;;9.52;8.52;;;;;20.90;100198.00;;;;10528349;28;20293;-76
2021/06/20 20:38:43;;;;;;;10.02;7.88;;;;;20.80;100200.00;;;;10532927;28;20608;-76
2021/06/20 20:43:46;;;;;;;9.02;8.05;;;;;20.60;100192.00;;;;10503744;28;20247;-76
2021/06/20 20:48:48;;;;;;;8.80;7.68;;;;;20.40;100184.00;;;;10517363;28;20192;-77
2021/06/20 20:53:50;;;;;;;8.18;7.38;;;;;20.20;100193.00;;;;10485221;28;20809;-77
2021/06/20 20:58:52;;;;;;;9.45;8.20;;;;;20.00;100190.00;;;;10505722;28;20189;-77
2021/06/20 21:03:53;;;;;;;9.52;8.50;;;;;19.80;100193.00;;;;10534215;28;20594;-77
2021/06/20 21:08:56;;;;;;;11.35;8.02;;;;;19.70;100192.00;;;;10513248;28;20197;-77
2021/06/20 21:13:58;;;;;;;9.65;8.23;;;;;19.60;100186.00;;;;10504506;28;20197;-76
2021/06/20 21:19:01;;;;;;;8.02;7.25;;;;;19.50;100196.00;;;;10521119;28;20192;-75
2021/06/20 21:24:03;;;;;;;8.57;7.38;;;;;19.50;100185.00;;;;10486442;28;20209;-78
2021/06/20 21:29:04;;;;;;;7.68;6.97;;;;;19.50;100181.00;;;;10488305;28;20209;-77
2021/06/20 21:34:06;;;;;;;12.20;7.57;;;;;19.50;100188.00;;;;10505046;28;20217;-77
2021/06/20 21:39:08;;;;;;;8.77;7.97;;;;;19.50;100179.00;;;;10520358;28;20608;-77
2021/06/20 21:44:10;;;;;;;8.75;7.63;;;;;19.50;100187.00;;;;10538516;28;20184;-77
2021/06/20 21:49:13;;;;;;;9.15;8.25;;;;;19.40;100178.00;;;;10504390;28;20254;-77
2021/06/20 21:54:17;;;;;;;9.23;8.30;;;;;19.30;100178.00;;;;10485309;28;20201;-77
2021/06/20 21:59:20;;;;;;;10.73;9.63;;;;;19.20;100171.00;;;;10464587;28;20644;-78
2021/06/20 22:04:22;;;;;;;9.68;7.90;;;;;19.10;100150.00;;;;10545760;28;20205;-77
2021/06/20 22:09:24;;;;;;;11.63;9.85;;;;;19.00;100141.00;;;;10563376;28;20227;-78
2021/06/20 22:14:26;;;;;;;10.98;9.88;;;;;18.90;100127.00;;;;10569670;28;20214;-77
2021/06/20 22:19:27;;;;;;;11.38;10.18;;;;;18.80;100129.00;;;;10475654;28;20208;-77
2021/06/20 22:24:30;;;;;;;12.00;10.75;;;;;18.70;100134.00;;;;10477293;28;20204;-77
2021/06/20 22:29:32;;;;;;;12.55;11.27;;;;;18.60;100130.00;;;;10512992;28;20205;-78
2021/06/20 22:34:34;;;;;;;14.95;11.35;;;;;18.60;100122.00;;;;10513203;28;20718;-78
2021/06/20 22:39:36;;;;;;;14.43;12.93;;;;;18.50;100118.00;;;;10528788;28;20656;-78
2021/06/20 22:44:38;;;;;;;13.25;11.70;;;;;18.40;100117.00;;;;10511293;28;20200;-77
2021/06/20 22:49:40;;;;;;;15.35;12.32;;;;;18.30;100116.00;;;;10545752;28;20250;-77
2021/06/20 22:54:42;;;;;;;14.30;12.70;;;;;18.20;100107.00;;;;10501346;28;20208;-77
2021/06/20 22:59:44;;;;;;;15.18;13.48;;;;;18.20;100092.00;;;;10552019;28;20258;-76
2021/06/20 23:04:46;;;;;;;16.00;14.35;;;;;18.20;100095.00;;;;10512495;28;20216;-76
2021/06/20 23:09:48;;;;;;;16.98;15.05;;;;;18.20;100085.00;;;;10486337;28;20217;-77
2021/06/20 23:14:50;;;;;;;16.55;14.77;;;;;18.10;100075.00;;;;10496892;28;20193;-76
2021/06/20 23:19:52;;;;;;;22.77;18.00;;;;;18.10;100064.00;;;;10475140;28;20194;-76
2021/06/20 23:24:53;;;;;;;19.02;17.00;;;;;18.00;100068.00;;;;10486118;28;20288;-77
2021/06/20 23:29:55;;;;;;;20.00;17.15;;;;;18.00;100068.00;;;;10514967;28;20308;-77
2021/06/20 23:34:57;;;;;;;23.60;18.92;;;;;18.00;100056.00;;;;10515802;28;20230;-77
2021/06/20 23:40:00;;;;;;;21.67;18.80;;;;;18.00;100049.00;;;;10498917;28;20228;-77
2021/06/20 23:45:04;;;;;;;22.90;20.13;;;;;18.00;100052.00;;;;10515091;28;20185;-77
2021/06/20 23:50:07;;;;;;;22.27;19.90;;;;;18.00;100055.00;;;;10512874;28;20217;-76
2021/06/20 23:55:10;;;;;;;26.45;21.13;;;;;18.00;100061.00;;;;10483301;28;21001;-77
